Time;durP1;ratioP1;P1;durP2;ratioP2;P2;SDS_P1;SDS_P2;PMS_P1;PMS_P2;Temp;Humidity;BMP_temperature;BMP_pressure;BME280_temperature;BME280_humidity;BME280_pressure;Samples;Min_cycle;Max_cycle;Signal;HPM_P1;HPM_P2
2022/04/23 00:00:28;;;;;;;287.60;115.10;;;;;;;;;;5068334;28;21114;-71
2022/04/23 00:03:00;;;;;;;319.50;110.63;;;;;;;;;;5048052;28;20477;-72
2022/04/23 00:05:33;;;;;;;368.93;115.57;;;;;;;;;;5051590;28;20454;-71
2022/04/23 00:08:02;;;;;;;366.77;111.70;;;;;;;;;;5058291;28;20533;-71
2022/04/23 00:10:30;;;;;;;372.47;113.53;;;;;;;;;;5057609;28;20893;-71
2022/04/23 00:12:59;;;;;;;372.47;108.90;;;;;;;;;;5055799;28;20465;-71
2022/04/23 00:15:29;;;;;;;366.37;105.33;;;;;;;;;;5055429;28;20461;-71
2022/04/23 00:17:57;;;;;;;372.20;105.20;;;;;;;;;;5055647;28;20548;-72
2022/04/23 00:20:29;;;;;;;377.50;110.17;;;;;;;;;;5056072;28;20808;-73
2022/04/23 00:22:57;;;;;;;370.07;108.00;;;;;;;;;;5058062;28;20453;-72
2022/04/23 00:25:29;;;;;;;367.03;103.20;;;;;;;;;;5056557;28;20473;-71
2022/04/23 00:27:58;;;;;;;377.57;108.60;;;;;;;;;;5057436;28;20530;-72
2022/04/23 00:30:28;;;;;;;375.63;105.43;;;;;;;;;;5076140;28;20804;-72
2022/04/23 00:33:00;;;;;;;370.37;107.90;;;;;;;;;;5075437;28;20473;-72
2022/04/23 00:35:28;;;;;;;266.03;102.67;;;;;;;;;;5074432;28;20466;-72
2022/04/23 00:37:56;;;;;;;96.47;70.07;;;;;;;;;;5076056;28;21035;-72
2022/04/23 00:40:25;;;;;;;367.77;107.67;;;;;;;;;;5075091;28;20491;-71
2022/04/23 00:42:55;;;;;;;373.97;106.67;;;;;;;;;;5072551;28;20471;-72
2022/04/23 00:45:23;;;;;;;344.43;108.30;;;;;;;;;;5054611;28;20547;-72
2022/04/23 00:47:51;;;;;;;335.37;99.60;;;;;;;;;;5055884;28;20472;-72
2022/04/23 00:50:21;;;;;;;274.63;108.07;;;;;;;;;;5067014;28;20484;-70
2022/04/23 00:52:50;;;;;;;377.33;107.33;;;;;;;;;;5062397;28;20460;-72
2022/04/23 00:55:19;;;;;;;377.80;105.10;;;;;;;;;;5073519;28;20472;-72
2022/04/23 00:57:47;;;;;;;372.13;107.37;;;;;;;;;;5054883;28;20485;-72
2022/04/23 01:00:18;;;;;;;372.47;102.03;;;;;;;;;;5059105;28;20448;-72
2022/04/23 01:02:46;;;;;;;357.73;106.40;;;;;;;;;;5069300;28;20866;-72
2022/04/23 01:05:14;;;;;;;316.07;98.50;;;;;;;;;;5055555;28;20466;-72
2022/04/23 01:07:44;;;;;;;365.07;108.07;;;;;;;;;;5063426;28;20465;-72
2022/04/23 01:10:12;;;;;;;306.80;108.33;;;;;;;;;;5074791;28;20532;-73
2022/04/23 01:12:41;;;;;;;363.97;107.67;;;;;;;;;;5063200;28;20453;-71
2022/04/23 01:15:10;;;;;;;351.67;103.90;;;;;;;;;;5071984;28;20557;-71
2022/04/23 01:17:39;;;;;;;368.57;105.47;;;;;;;;;;5075467;28;21184;-72
2022/04/23 01:20:11;;;;;;;340.07;100.80;;;;;;;;;;5063787;28;20461;-72
2022/04/23 01:22:39;;;;;;;353.17;104.27;;;;;;;;;;5055291;28;20462;-72
2022/04/23 01:25:08;;;;;;;336.00;100.57;;;;;;;;;;5054602;28;20527;-75
2022/04/23 01:27:36;;;;;;;364.53;104.23;;;;;;;;;;5055546;28;20733;-72
2022/04/23 01:30:04;;;;;;;369.40;99.77;;;;;;;;;;5054927;28;20464;-72
2022/04/23 01:32:32;;;;;;;367.00;95.60;;;;;;;;;;5054708;28;20877;-72
2022/04/23 01:35:00;;;;;;;351.67;107.13;;;;;;;;;;5054421;28;20837;-72
2022/04/23 01:37:29;;;;;;;363.07;104.80;;;;;;;;;;5054620;28;20510;-72
2022/04/23 01:39:57;;;;;;;356.03;100.47;;;;;;;;;;5055125;28;20472;-72
2022/04/23 01:42:26;;;;;;;353.73;104.40;;;;;;;;;;5054302;28;20457;-72
2022/04/23 01:45:03;;;;;;;367.93;103.43;;;;;;;;;;5056324;28;20870;-72
2022/04/23 01:47:33;;;;;;;373.37;110.23;;;;;;;;;;5072336;28;20503;-72
2022/04/23 01:50:04;;;;;;;369.53;106.77;;;;;;;;;;5064852;28;20538;-72
2022/04/23 01:52:36;;;;;;;369.87;106.90;;;;;;;;;;5054052;28;20547;-72
2022/04/23 01:55:04;;;;;;;365.73;101.27;;;;;;;;;;5052542;28;20489;-73
2022/04/23 01:57:31;;;;;;;354.33;101.20;;;;;;;;;;5053089;28;20481;-70
2022/04/23 02:00:06;;;;;;;367.33;102.30;;;;;;;;;;5054504;28;20960;-71
2022/04/23 02:02:35;;;;;;;6.07;4.30;;;;;;;;;;5054294;28;20452;-72
2022/04/23 02:05:03;;;;;;;8.20;4.50;;;;;;;;;;5052749;28;20465;-72
2022/04/23 02:07:43;;;;;;;7.87;5.27;;;;;;;;;;5069508;28;20462;-72
2022/04/23 02:10:11;;;;;;;140.27;77.57;;;;;;;;;;5074367;28;20863;-72
2022/04/23 02:12:39;;;;;;;14.57;11.47;;;;;;;;;;5075172;28;20525;-72
2022/04/23 02:15:08;;;;;;;107.33;66.37;;;;;;;;;;5056739;28;21174;-72
2022/04/23 02:17:39;;;;;;;7.03;5.90;;;;;;;;;;5057365;28;20587;-72
2022/04/23 02:20:09;;;;;;;109.33;73.60;;;;;;;;;;5051353;28;20743;-71
2022/04/23 02:22:37;;;;;;;99.47;64.03;;;;;;;;;;5076893;28;20444;-72
2022/04/23 02:25:07;;;;;;;7.47;5.90;;;;;;;;;;5059602;28;20496;-72
2022/04/23 02:27:42;;;;;;;98.80;66.13;;;;;;;;;;5058582;28;20801;-72
2022/04/23 02:30:11;;;;;;;42.17;38.60;;;;;;;;;;5058830;28;20453;-72
2022/04/23 02:32:39;;;;;;;118.07;76.77;;;;;;;;;;5065123;28;21028;-73
2022/04/23 02:35:07;;;;;;;133.70;78.80;;;;;;;;;;5077983;28;20496;-72
2022/04/23 02:37:35;;;;;;;177.17;92.27;;;;;;;;;;5077908;28;20531;-72
2022/04/23 02:40:03;;;;;;;5.63;5.03;;;;;;;;;;5061892;28;20472;-72
2022/04/23 02:42:33;;;;;;;8.70;6.23;;;;;;;;;;5057945;28;20506;-72
2022/04/23 02:45:03;;;;;;;7.60;5.60;;;;;;;;;;5057256;28;20472;-72
2022/04/23 02:47:44;;;;;;;8.37;6.27;;;;;;;;;;5056770;28;20821;-72
2022/04/23 02:50:13;;;;;;;25.10;23.67;;;;;;;;;;5056125;28;20465;-72
2022/04/23 02:52:43;;;;;;;10.07;9.10;;;;;;;;;;5057089;28;20870;-71
2022/04/23 02:55:12;;;;;;;14.80;13.90;;;;;;;;;;5055686;28;20461;-72
2022/04/23 02:57:43;;;;;;;20.13;18.93;;;;;;;;;;5056730;28;20555;-72
2022/04/23 03:00:14;;;;;;;9.40;8.40;;;;;;;;;;5058204;28;20467;-72
2022/04/23 03:02:42;;;;;;;6.67;5.80;;;;;;;;;;5057148;28;20449;-71
2022/04/23 03:05:12;;;;;;;7.33;6.43;;;;;;;;;;5057830;28;21119;-72
2022/04/23 03:07:40;;;;;;;26.03;24.40;;;;;;;;;;5056405;28;20869;-71
2022/04/23 03:10:09;;;;;;;131.63;65.90;;;;;;;;;;5057541;28;20453;-71
2022/04/23 03:12:38;;;;;;;29.73;27.40;;;;;;;;;;5057198;28;20460;-71
2022/04/23 03:15:08;;;;;;;60.80;44.23;;;;;;;;;;5056606;28;20488;-72
2022/04/23 03:17:37;;;;;;;165.03;68.00;;;;;;;;;;5056850;28;20580;-72
2022/04/23 03:20:05;;;;;;;135.07;62.43;;;;;;;;;;5056698;28;20486;-72
2022/04/23 03:22:33;;;;;;;121.77;60.00;;;;;;;;;;5057085;28;20453;-73
2022/04/23 03:25:04;;;;;;;9.60;7.87;;;;;;;;;;5055471;28;20466;-72
2022/04/23 03:27:32;;;;;;;8.90;8.00;;;;;;;;;;5057449;28;20496;-72
2022/04/23 03:29:59;;;;;;;10.33;7.23;;;;;;;;;;5057221;28;20465;-72
2022/04/23 03:32:29;;;;;;;9.43;5.30;;;;;;;;;;5056917;28;20869;-72
2022/04/23 03:34:57;;;;;;;110.60;57.77;;;;;;;;;;5057493;28;20473;-72
2022/04/23 03:37:28;;;;;;;114.20;64.93;;;;;;;;;;5056212;28;20488;-72
2022/04/23 03:39:59;;;;;;;141.87;71.37;;;;;;;;;;5057444;28;20547;-72
2022/04/23 03:42:27;;;;;;;90.37;57.67;;;;;;;;;;5056754;28;20889;-72
2022/04/23 03:44:55;;;;;;;99.83;61.37;;;;;;;;;;5056796;28;20884;-72
2022/04/23 03:47:25;;;;;;;109.90;66.10;;;;;;;;;;5053240;28;20453;-72
2022/04/23 03:49:59;;;;;;;19.60;17.70;;;;;;;;;;5043372;28;20532;-72
2022/04/23 03:52:35;;;;;;;16.67;15.03;;;;;;;;;;5047551;28;20452;-73
2022/04/23 03:55:09;;;;;;;17.70;16.27;;;;;;;;;;5076035;28;20533;-72
2022/04/23 03:57:48;;;;;;;9.67;8.23;;;;;;;;;;5069932;28;20516;-72
2022/04/23 04:00:21;;;;;;;14.40;8.60;;;;;;;;;;5055082;28;20888;-72
2022/04/23 04:02:56;;;;;;;10.80;7.50;;;;;;;;;;5055508;28;20869;-72
2022/04/23 04:05:28;;;;;;;9.90;6.83;;;;;;;;;;5056534;28;20551;-72
2022/04/23 04:08:11;;;;;;;9.80;6.80;;;;;;;;;;5055293;28;20741;-73
2022/04/23 04:10:47;;;;;;;9.73;8.00;;;;;;;;;;5055951;28;20994;-72
2022/04/23 04:13:16;;;;;;;10.70;9.60;;;;;;;;;;5055981;28;20457;-72
2022/04/23 04:15:45;;;;;;;12.33;10.40;;;;;;;;;;5056483;28;20476;-73
2022/04/23 04:18:14;;;;;;;15.93;14.30;;;;;;;;;;5055698;28;20496;-72
2022/04/23 04:20:44;;;;;;;15.60;14.30;;;;;;;;;;5055503;28;20900;-72
2022/04/23 04:23:13;;;;;;;10.03;7.97;;;;;;;;;;5056004;28;20480;-72
2022/04/23 04:25:40;;;;;;;27.37;25.50;;;;;;;;;;5054459;28;20457;-72
2022/04/23 04:28:09;;;;;;;11.87;9.67;;;;;;;;;;5066094;28;20465;-72
2022/04/23 04:33:18;;;;;;;10.53;7.60;;;;;;;;;;5074232;28;20844;-72
2022/04/23 04:35:47;;;;;;;10.10;6.43;;;;;;;;;;5074166;28;20492;-72
2022/04/23 04:38:15;;;;;;;12.07;9.43;;;;;;;;;;5073450;28;20485;-72
2022/04/23 04:40:43;;;;;;;15.03;9.73;;;;;;;;;;5074297;28;20794;-72
2022/04/23 04:43:11;;;;;;;10.40;7.73;;;;;;;;;;5073928;28;20481;-72
2022/04/23 04:45:39;;;;;;;11.37;8.80;;;;;;;;;;5059797;28;20473;-72
2022/04/23 04:48:07;;;;;;;12.53;8.33;;;;;;;;;;5072499;28;20460;-72
2022/04/23 04:50:38;;;;;;;12.87;8.87;;;;;;;;;;5075458;28;20503;-72
2022/04/23 04:53:08;;;;;;;12.07;8.03;;;;;;;;;;5074958;28;20449;-73
2022/04/23 04:55:44;;;;;;;10.70;7.93;;;;;;;;;;5075314;28;20857;-72
2022/04/23 04:58:12;;;;;;;13.67;8.33;;;;;;;;;;5011323;28;20922;-73
2022/04/23 05:00:41;;;;;;;10.40;8.63;;;;;;;;;;5020542;28;20885;-73
2022/04/23 05:03:21;;;;;;;10.17;8.20;;;;;;;;;;5016588;28;20470;-73
2022/04/23 05:05:49;;;;;;;13.30;10.30;;;;;;;;;;5024904;28;20450;-72
2022/04/23 05:08:18;;;;;;;15.57;9.57;;;;;;;;;;5023440;28;20459;-72
2022/04/23 05:10:46;;;;;;;12.10;8.67;;;;;;;;;;5032728;28;20743;-72
2022/04/23 05:13:16;;;;;;;17.00;10.90;;;;;;;;;;5034798;28;20505;-71
2022/04/23 05:15:53;;;;;;;13.70;10.23;;;;;;;;;;5034163;28;20749;-72
2022/04/23 05:18:30;;;;;;;10.67;8.07;;;;;;;;;;5034310;28;20489;-72
2022/04/23 05:21:00;;;;;;;11.43;8.00;;;;;;;;;;5034433;28;20458;-72
2022/04/23 05:23:30;;;;;;;9.00;8.03;;;;;;;;;;5034858;28;20734;-71
2022/04/23 05:25:58;;;;;;;10.70;7.17;;;;;;;;;;5027917;28;20452;-72
2022/04/23 05:28:25;;;;;;;11.43;8.33;;;;;;;;;;5015934;28;20543;-72
2022/04/23 05:30:54;;;;;;;9.40;8.03;;;;;;;;;;4994065;28;20475;-72
2022/04/23 05:33:22;;;;;;;10.23;7.50;;;;;;;;;;4994936;28;20494;-72
2022/04/23 05:35:50;;;;;;;10.77;7.47;;;;;;;;;;4994705;28;20722;-72
2022/04/23 05:38:21;;;;;;;9.90;7.90;;;;;;;;;;5026794;28;20910;-71
2022/04/23 05:40:52;;;;;;;9.10;7.60;;;;;;;;;;5032602;28;20455;-72
2022/04/23 05:43:20;;;;;;;9.80;7.03;;;;;;;;;;5033161;28;20454;-72
2022/04/23 05:45:50;;;;;;;8.60;7.63;;;;;;;;;;5032116;28;20454;-71
2022/04/23 05:48:18;;;;;;;8.73;6.83;;;;;;;;;;5035984;28;20457;-72
2022/04/23 05:50:46;;;;;;;11.27;7.80;;;;;;;;;;5037492;28;20470;-72
2022/04/23 05:53:15;;;;;;;10.20;7.03;;;;;;;;;;5019620;28;20500;-71
2022/04/23 05:55:43;;;;;;;10.00;8.00;;;;;;;;;;5018537;28;20532;-71
2022/04/23 05:58:13;;;;;;;10.33;8.40;;;;;;;;;;5014189;28;20570;-71
2022/04/23 06:00:43;;;;;;;8.90;7.97;;;;;;;;;;5017807;28;20910;-72
2022/04/23 06:03:11;;;;;;;12.60;8.30;;;;;;;;;;5019167;28;20677;-72
2022/04/23 06:05:48;;;;;;;8.83;7.60;;;;;;;;;;5018931;28;20459;-71
2022/04/23 06:08:16;;;;;;;12.17;8.27;;;;;;;;;;5018334;28;21036;-71
2022/04/23 06:10:44;;;;;;;11.50;7.47;;;;;;;;;;5018251;28;20522;-71
2022/04/23 06:13:25;;;;;;;15.00;7.70;;;;;;;;;;5000260;28;20451;-71
2022/04/23 06:15:53;;;;;;;9.90;8.10;;;;;;;;;;5025091;28;20541;-71
2022/04/23 06:18:21;;;;;;;9.87;7.63;;;;;;;;;;5018648;28;20581;-71
2022/04/23 06:20:49;;;;;;;8.43;7.10;;;;;;;;;;5017726;28;20455;-70
2022/04/23 06:23:17;;;;;;;10.20;8.63;;;;;;;;;;5019007;28;20494;-70
2022/04/23 06:25:45;;;;;;;11.77;8.97;;;;;;;;;;5018520;28;20499;-70
2022/04/23 06:28:13;;;;;;;9.37;7.60;;;;;;;;;;5017974;28;20517;-71
2022/04/23 06:30:42;;;;;;;10.73;8.30;;;;;;;;;;5017636;28;20532;-70
2022/04/23 06:33:10;;;;;;;14.70;7.33;;;;;;;;;;5019321;28;20455;-70
2022/04/23 06:35:37;;;;;;;11.57;8.70;;;;;;;;;;5017723;28;20524;-71
2022/04/23 06:38:05;;;;;;;12.50;10.10;;;;;;;;;;5018479;28;20999;-70
2022/04/23 06:40:35;;;;;;;14.60;10.33;;;;;;;;;;5016649;28;20747;-70
2022/04/23 06:43:03;;;;;;;10.10;8.40;;;;;;;;;;5018104;28;20479;-71
2022/04/23 06:45:31;;;;;;;11.33;7.60;;;;;;;;;;5015932;28;20487;-71
2022/04/23 06:48:04;;;;;;;10.83;7.87;;;;;;;;;;4997231;28;20496;-71
2022/04/23 06:50:37;;;;;;;10.13;7.77;;;;;;;;;;5002691;28;20463;-70
2022/04/23 06:53:08;;;;;;;13.07;8.60;;;;;;;;;;5012951;28;20528;-72
2022/04/23 06:55:36;;;;;;;11.10;9.43;;;;;;;;;;5016751;28;20473;-72
2022/04/23 06:58:04;;;;;;;9.70;7.20;;;;;;;;;;5015696;28;20902;-70
2022/04/23 07:00:33;;;;;;;10.50;8.50;;;;;;;;;;5017732;28;20467;-71
2022/04/23 07:03:03;;;;;;;10.80;8.23;;;;;;;;;;5013466;28;20911;-71
2022/04/23 07:05:31;;;;;;;9.50;8.10;;;;;;;;;;4997903;28;20460;-72
2022/04/23 07:08:01;;;;;;;16.53;9.47;;;;;;;;;;4997434;28;20480;-71
2022/04/23 07:10:29;;;;;;;9.20;7.53;;;;;;;;;;5010835;28;20495;-71
2022/04/23 07:13:00;;;;;;;7.87;6.90;;;;;;;;;;5031590;28;20542;-71
2022/04/23 07:15:29;;;;;;;11.13;9.30;;;;;;;;;;5004677;28;20459;-71
2022/04/23 07:17:56;;;;;;;8.93;7.93;;;;;;;;;;5016538;28;20483;-72
2022/04/23 07:20:25;;;;;;;11.13;8.83;;;;;;;;;;5015757;28;20491;-71
2022/04/23 07:25:38;;;;;;;7.70;6.10;;;;;;;;;;4999746;28;20447;-71
2022/04/23 07:28:07;;;;;;;35.57;33.50;;;;;;;;;;5015758;28;20480;-71
2022/04/23 07:30:35;;;;;;;10.30;9.20;;;;;;;;;;5015492;28;20467;-71
2022/04/23 07:33:03;;;;;;;11.10;9.70;;;;;;;;;;5016070;28;20548;-71
2022/04/23 07:38:25;;;;;;;7.07;6.07;;;;;;;;;;5004381;28;20573;-71
2022/04/23 07:40:53;;;;;;;7.57;6.70;;;;;;;;;;5015115;28;20463;-70
2022/04/23 07:43:21;;;;;;;8.87;6.77;;;;;;;;;;5014548;28;20465;-70
2022/04/23 07:45:49;;;;;;;7.17;6.03;;;;;;;;;;5015856;28;20765;-71
2022/04/23 07:48:17;;;;;;;7.43;5.80;;;;;;;;;;5014912;28;20475;-72
2022/04/23 07:50:47;;;;;;;11.80;6.20;;;;;;;;;;5016400;28;20455;-72
2022/04/23 07:53:25;;;;;;;9.00;6.97;;;;;;;;;;5016324;28;20463;-71
2022/04/23 07:55:54;;;;;;;18.57;17.00;;;;;;;;;;5015070;28;20463;-70
2022/04/23 07:58:24;;;;;;;7.17;5.97;;;;;;;;;;5019540;28;20490;-71
2022/04/23 08:00:52;;;;;;;8.70;6.17;;;;;;;;;;5021360;28;20475;-70
2022/04/23 08:03:19;;;;;;;9.07;7.83;;;;;;;;;;5015639;28;20793;-72
2022/04/23 08:05:52;;;;;;;9.07;8.10;;;;;;;;;;5029905;28;20576;-72
2022/04/23 08:08:21;;;;;;;12.80;10.10;;;;;;;;;;5034200;28;20525;-71
2022/04/23 08:10:51;;;;;;;11.00;9.70;;;;;;;;;;5009324;28;20537;-72
2022/04/23 08:13:25;;;;;;;9.50;8.53;;;;;;;;;;5013750;28;20466;-73
2022/04/23 08:15:53;;;;;;;13.67;12.57;;;;;;;;;;5018180;28;20525;-72
2022/04/23 08:18:25;;;;;;;24.47;22.93;;;;;;;;;;5028010;28;20482;-73
2022/04/23 08:20:55;;;;;;;8.40;7.57;;;;;;;;;;5009521;28;20458;-72
2022/04/23 08:23:26;;;;;;;7.70;6.90;;;;;;;;;;5013802;28;20463;-73
2022/04/23 08:26:05;;;;;;;18.30;16.70;;;;;;;;;;5007811;28;21106;-72
2022/04/23 08:31:21;;;;;;;13.13;11.90;;;;;;;;;;5013718;28;20427;-72
2022/04/23 08:34:09;;;;;;;11.43;10.50;;;;;;;;;;5016228;28;20815;-72
2022/04/23 08:36:39;;;;;;;11.50;10.50;;;;;;;;;;5015816;28;20872;-72
2022/04/23 08:39:27;;;;;;;10.20;6.73;;;;;;;;;;5016458;28;20831;-71
2022/04/23 08:41:55;;;;;;;10.97;9.23;;;;;;;;;;5030652;28;20458;-71
2022/04/23 08:44:24;;;;;;;7.20;5.87;;;;;;;;;;5027599;28;20474;-72
2022/04/23 08:46:53;;;;;;;11.00;9.90;;;;;;;;;;5013933;28;20474;-71
2022/04/23 08:49:21;;;;;;;11.17;9.13;;;;;;;;;;4996241;28;20455;-72
2022/04/23 08:51:54;;;;;;;9.93;9.03;;;;;;;;;;5010423;28;20891;-73
2022/04/23 08:54:25;;;;;;;7.30;6.47;;;;;;;;;;5034399;28;20446;-71
2022/04/23 08:56:53;;;;;;;11.67;8.73;;;;;;;;;;5012933;28;20471;-71
2022/04/23 08:59:23;;;;;;;10.57;9.33;;;;;;;;;;5017090;28;20487;-72
2022/04/23 09:01:51;;;;;;;10.67;7.30;;;;;;;;;;5014028;28;20482;-72
2022/04/23 09:04:20;;;;;;;7.60;5.90;;;;;;;;;;5015395;28;20543;-73
2022/04/23 09:06:48;;;;;;;10.37;7.80;;;;;;;;;;5014327;28;20962;-73
2022/04/23 09:09:20;;;;;;;16.00;14.60;;;;;;;;;;5015043;28;20549;-71
2022/04/23 09:11:55;;;;;;;13.27;12.07;;;;;;;;;;5013729;28;20542;-72
2022/04/23 09:14:37;;;;;;;11.07;10.03;;;;;;;;;;5026845;28;20446;-73
2022/04/23 09:25:35;;;;;;;10.87;9.20;;;;;;;;;;5032259;28;20546;-73
2022/04/23 09:28:19;;;;;;;23.97;21.93;;;;;;;;;;5022013;28;20459;-73
2022/04/23 09:30:47;;;;;;;28.03;26.23;;;;;;;;;;5030453;28;20527;-72
2022/04/23 09:33:21;;;;;;;7.67;6.87;;;;;;;;;;5024911;28;20510;-72
2022/04/23 09:36:03;;;;;;;33.87;31.87;;;;;;;;;;4999688;28;20493;-72
2022/04/23 09:41:47;;;;;;;15.67;14.43;;;;;;;;;;5010349;28;20463;-71
2022/04/23 09:44:20;;;;;;;20.90;19.47;;;;;;;;;;5010996;28;20546;-72
2022/04/23 09:46:55;;;;;;;56.77;53.90;;;;;;;;;;5014539;28;20466;-74
2022/04/23 09:52:09;;;;;;;40.27;38.33;;;;;;;;;;5011506;28;20473;-72
2022/04/23 09:54:59;;;;;;;52.77;49.17;;;;;;;;;;5017557;28;20529;-73
2022/04/23 10:00:50;;;;;;;27.83;25.70;;;;;;;;;;5019554;28;20941;-72
2022/04/23 10:03:32;;;;;;;59.57;56.07;;;;;;;;;;5020257;28;20852;-72
2022/04/23 10:06:08;;;;;;;35.13;32.97;;;;;;;;;;5014710;28;20480;-71
2022/04/23 10:08:41;;;;;;;121.03;114.07;;;;;;;;;;5004339;28;20489;-72
2022/04/23 10:11:16;;;;;;;30.10;28.50;;;;;;;;;;5014760;28;20478;-72
2022/04/23 10:13:57;;;;;;;32.80;31.17;;;;;;;;;;5005391;28;20458;-71
2022/04/23 10:16:40;;;;;;;180.67;167.90;;;;;;;;;;5006406;28;20803;-72
2022/04/23 10:19:13;;;;;;;58.87;55.67;;;;;;;;;;5005213;28;20755;-71
2022/04/23 10:21:48;;;;;;;78.30;74.47;;;;;;;;;;5015242;28;20462;-72
2022/04/23 10:24:35;;;;;;;108.10;102.43;;;;;;;;;;5017831;28;20474;-71
2022/04/23 10:27:11;;;;;;;66.10;62.90;;;;;;;;;;5016867;28;20524;-72
2022/04/23 10:30:04;;;;;;;33.57;31.40;;;;;;;;;;5020281;28;21158;-71
2022/04/23 10:32:39;;;;;;;142.20;133.60;;;;;;;;;;4996978;28;20978;-72
2022/04/23 10:35:36;;;;;;;163.50;154.77;;;;;;;;;;5011309;28;20462;-73
2022/04/23 10:38:30;;;;;;;186.53;174.87;;;;;;;;;;4991398;28;20471;-73
2022/04/23 10:40:59;;;;;;;19.47;17.80;;;;;;;;;;4985720;28;20554;-73
2022/04/23 10:43:36;;;;;;;16.57;15.17;;;;;;;;;;4996167;28;20479;-73
2022/04/23 10:46:13;;;;;;;86.03;81.63;;;;;;;;;;4997287;28;20554;-73
2022/04/23 10:48:50;;;;;;;23.17;21.20;;;;;;;;;;4998835;28;20518;-73
2022/04/23 10:51:22;;;;;;;233.87;216.60;;;;;;;;;;4999563;28;20486;-72
2022/04/23 10:53:54;;;;;;;18.83;17.33;;;;;;;;;;5008438;28;20864;-72
2022/04/23 10:56:26;;;;;;;31.97;30.10;;;;;;;;;;5001341;28;20480;-71
2022/04/23 10:58:57;;;;;;;24.27;22.50;;;;;;;;;;4997802;28;20962;-74
2022/04/23 11:01:31;;;;;;;49.30;45.90;;;;;;;;;;4996305;28;20578;-72
2022/04/23 11:04:30;;;;;;;44.70;41.70;;;;;;;;;;5022099;28;20573;-72
2022/04/23 11:12:33;;;;;;;78.47;74.37;;;;;;;;;;5009369;28;20523;-72
2022/04/23 11:15:14;;;;;;;79.37;75.60;;;;;;;;;;5003364;28;20467;-72
2022/04/23 11:17:58;;;;;;;42.27;39.37;;;;;;;;;;5010498;28;20905;-71
2022/04/23 11:20:44;;;;;;;160.23;151.53;;;;;;;;;;5010226;28;20497;-72
2022/04/23 11:23:39;;;;;;;;;;;;;;;;;;;;;
2022/04/23 11:26:11;;;;;;;62.83;59.87;;;;;;;;;;5010412;28;20751;-71
2022/04/23 11:28:40;;;;;;;51.10;48.23;;;;;;;;;;5001120;28;20466;-72
2022/04/23 11:31:11;;;;;;;220.93;208.33;;;;;;;;;;5017313;28;20663;-72
2022/04/23 11:33:56;;;;;;;114.97;109.27;;;;;;;;;;5022813;28;20458;-73
2022/04/23 11:36:32;;;;;;;130.43;123.77;;;;;;;;;;5009479;28;20565;-72
2022/04/23 11:39:03;;;;;;;210.00;198.67;;;;;;;;;;5017911;28;20544;-71
2022/04/23 11:41:32;;;;;;;64.60;61.20;;;;;;;;;;5015691;28;20525;-72
2022/04/23 11:44:12;;;;;;;116.40;110.57;;;;;;;;;;5018364;28;20722;-72
2022/04/23 11:46:56;;;;;;;271.70;249.17;;;;;;;;;;5001060;28;20466;-74
2022/04/23 11:49:29;;;;;;;131.50;124.87;;;;;;;;;;5014813;28;20550;-72
2022/04/23 11:52:28;;;;;;;244.77;228.50;;;;;;;;;;5014227;28;20455;-72
2022/04/23 11:55:03;;;;;;;225.37;210.50;;;;;;;;;;5013590;28;20463;-73
2022/04/23 11:57:36;;;;;;;233.20;217.40;;;;;;;;;;5017909;28;20538;-70
2022/04/23 12:00:10;;;;;;;159.47;151.13;;;;;;;;;;5016359;28;20497;-72
2022/04/23 12:05:39;;;;;;;68.30;65.10;;;;;;;;;;5009567;28;20569;-72
2022/04/23 12:08:22;;;;;;;23.13;21.63;;;;;;;;;;5015809;28;20544;-73
2022/04/23 12:10:51;;;;;;;230.00;217.10;;;;;;;;;;5015506;28;20557;-72
2022/04/23 12:13:33;;;;;;;176.13;167.20;;;;;;;;;;4988154;28;20476;-71
2022/04/23 12:22:01;;;;;;;54.43;52.00;;;;;;;;;;4989447;28;20456;-72
2022/04/23 12:24:47;;;;;;;189.00;179.37;;;;;;;;;;5002632;28;20455;-72
2022/04/23 12:27:18;;;;;;;358.47;331.37;;;;;;;;;;5012986;28;20559;-72
2022/04/23 12:41:19;;;;;;;189.13;179.97;;;;;;;;;;4995673;28;20489;-71
2022/04/23 12:43:52;;;;;;;43.60;41.43;;;;;;;;;;5006428;28;20557;-72
2022/04/23 12:46:50;;;;;;;289.47;273.10;;;;;;;;;;5012634;28;20881;-71
2022/04/23 12:49:38;;;;;;;314.93;297.90;;;;;;;;;;5007197;28;20467;-73
2022/04/23 12:52:20;;;;;;;268.80;254.37;;;;;;;;;;5004693;28;20472;-74
2022/04/23 12:55:20;;;;;;;313.63;294.13;;;;;;;;;;4992648;28;21223;-71
2022/04/23 12:58:09;;;;;;;34.80;25.63;;;;;;;;;;4999662;28;20464;-72
2022/04/23 13:00:56;;;;;;;234.80;221.40;;;;;;;;;;4994755;28;20522;-73
2022/04/23 13:03:46;;;;;;;223.90;211.80;;;;;;;;;;4992665;28;20485;-72
2022/04/23 13:09:06;;;;;;;263.63;248.40;;;;;;;;;;5012984;28;20463;-71
2022/04/23 13:14:36;;;;;;;138.90;131.80;;;;;;;;;;5000725;28;20458;-73
2022/04/23 13:17:12;;;;;;;347.17;320.73;;;;;;;;;;5014309;28;20470;-72
2022/04/23 13:19:45;;;;;;;236.87;223.53;;;;;;;;;;5012547;28;20586;-73
2022/04/23 13:22:17;;;;;;;262.40;246.77;;;;;;;;;;5014113;28;21079;-74
2022/04/23 13:27:30;;;;;;;285.57;268.23;;;;;;;;;;5008731;28;20474;-75
2022/04/23 13:30:06;;;;;;;266.00;250.87;;;;;;;;;;5014897;28;20450;-72
2022/04/23 13:32:43;;;;;;;72.97;69.47;;;;;;;;;;5008698;28;20464;-73
2022/04/23 13:35:21;;;;;;;67.50;64.23;;;;;;;;;;5012714;28;20531;-73
2022/04/23 13:37:50;;;;;;;266.40;252.07;;;;;;;;;;4992602;28;20518;-73
2022/04/23 13:40:19;;;;;;;61.33;58.53;;;;;;;;;;4994931;28;20586;-74
2022/04/23 13:45:42;;;;;;;236.47;223.37;;;;;;;;;;4995409;28;20523;-72
2022/04/23 13:48:15;;;;;;;84.30;80.17;;;;;;;;;;4994055;28;20475;-73
2022/04/23 13:51:03;;;;;;;223.47;212.00;;;;;;;;;;4999082;28;20470;-71
2022/04/23 13:53:34;;;;;;;103.83;99.07;;;;;;;;;;4983525;28;20471;-74
2022/04/23 13:56:10;;;;;;;210.50;199.67;;;;;;;;;;5013009;28;20467;-73
2022/04/23 13:58:42;;;;;;;56.67;54.00;;;;;;;;;;5013849;28;20745;-72
2022/04/23 14:01:28;;;;;;;;;;;;;;;;;;;;;
2022/04/23 14:12:23;;;;;;;214.60;203.07;;;;;;;;;;4997265;28;20475;-73
2022/04/23 14:14:56;;;;;;;10.57;7.50;;;;;;;;;;5005755;28;20491;-72
2022/04/23 14:17:32;;;;;;;25.27;23.53;;;;;;;;;;5017288;28;20463;-72
2022/04/23 14:20:07;;;;;;;10.80;9.70;;;;;;;;;;5002225;28;20514;-73
2022/04/23 14:22:35;;;;;;;12.50;10.50;;;;;;;;;;5017393;28;20748;-72
2022/04/23 14:25:19;;;;;;;7.93;7.13;;;;;;;;;;5018077;28;20509;-73
2022/04/23 14:27:47;;;;;;;9.57;7.73;;;;;;;;;;5017080;28;20557;-71
2022/04/23 14:30:17;;;;;;;11.40;9.60;;;;;;;;;;5017856;28;20459;-73
2022/04/23 14:32:51;;;;;;;15.57;9.47;;;;;;;;;;5017417;28;20481;-73
2022/04/23 14:35:21;;;;;;;14.63;13.13;;;;;;;;;;5032959;28;20445;-74
2022/04/23 14:37:53;;;;;;;20.67;19.13;;;;;;;;;;5015213;28;20466;-74
2022/04/23 14:40:23;;;;;;;79.03;74.00;;;;;;;;;;5004399;28;21135;-74
2022/04/23 14:42:57;;;;;;;268.20;252.27;;;;;;;;;;4992734;28;20470;-73
2022/04/23 14:46:12;;;;;;;134.67;128.40;;;;;;;;;;5004368;28;20464;-74
2022/04/23 14:54:36;;;;;;;226.53;214.67;;;;;;;;;;5014661;28;20442;-74
2022/04/23 14:57:07;;;;;;;55.53;52.93;;;;;;;;;;5015515;28;20459;-73
2022/04/23 14:59:37;;;;;;;295.90;277.53;;;;;;;;;;5017397;28;20467;-71
2022/04/23 15:02:16;;;;;;;328.20;306.03;;;;;;;;;;5012819;28;20459;-72
2022/04/23 15:04:50;;;;;;;69.77;65.93;;;;;;;;;;5003806;28;20864;-72
2022/04/23 15:07:20;;;;;;;289.57;265.30;;;;;;;;;;5015372;28;20541;-73
2022/04/23 15:09:59;;;;;;;12.43;10.20;;;;;;;;;;5012995;28;20451;-74
2022/04/23 15:15:25;;;;;;;286.47;269.30;;;;;;;;;;5010118;28;20754;-74
2022/04/23 15:17:53;;;;;;;292.27;274.93;;;;;;;;;;5006954;28;20462;-73
2022/04/23 15:20:42;;;;;;;298.63;279.10;;;;;;;;;;5009551;28;20491;-72
2022/04/23 15:23:39;;;;;;;269.40;253.80;;;;;;;;;;5011829;28;20470;-71
2022/04/23 15:26:23;;;;;;;261.43;246.10;;;;;;;;;;5015166;28;20459;-72
2022/04/23 15:28:56;;;;;;;230.03;217.67;;;;;;;;;;5008461;28;20755;-71
2022/04/23 15:31:29;;;;;;;306.70;289.57;;;;;;;;;;5016996;28;20463;-73
2022/04/23 15:34:19;;;;;;;;;;;;;;;;;;;;;
2022/04/23 15:37:15;;;;;;;;;;;;;;;;;;;;;
2022/04/23 15:39:46;;;;;;;303.20;285.03;;;;;;;;;;5011214;28;20459;-72
2022/04/23 15:42:20;;;;;;;282.20;264.73;;;;;;;;;;5013734;28;20447;-72
2022/04/23 15:44:52;;;;;;;7.40;6.70;;;;;;;;;;5010472;28;20475;-73
2022/04/23 15:47:20;;;;;;;225.73;211.47;;;;;;;;;;5012665;28;20505;-72
2022/04/23 15:49:51;;;;;;;109.10;103.17;;;;;;;;;;5014642;28;20475;-72
2022/04/23 15:52:21;;;;;;;262.33;246.73;;;;;;;;;;5014877;28;20447;-72
2022/04/23 15:55:09;;;;;;;6.20;5.60;;;;;;;;;;5015598;28;20466;-73
2022/04/23 15:57:41;;;;;;;48.73;46.13;;;;;;;;;;5011551;28;20545;-73
2022/04/23 16:00:12;;;;;;;68.63;65.50;;;;;;;;;;5003385;28;20899;-73
2022/04/23 16:02:40;;;;;;;48.10;45.37;;;;;;;;;;5014309;28;20475;-72
2022/04/23 16:05:10;;;;;;;7.63;6.63;;;;;;;;;;5013972;28;20454;-73
2022/04/23 16:07:44;;;;;;;7.57;6.73;;;;;;;;;;5014920;28;20662;-73
2022/04/23 16:10:12;;;;;;;9.20;8.00;;;;;;;;;;5005713;28;20450;-72
2022/04/23 16:13:00;;;;;;;10.00;7.90;;;;;;;;;;5010809;28;20496;-73